Time;durP1;ratioP1;P1;durP2;ratioP2;P2;SDS_P1;SDS_P2;PMS_P1;PMS_P2;Temp;Humidity;BMP_temperature;BMP_pressure;BME280_temperature;BME280_humidity;BME280_pressure;Samples;Min_cycle;Max_cycle;Signal;HPM_P1;HPM_P2
2023/01/12 00:01:21;;;;;;;23.77;4.65;;;8.10;99.90;;;;;;5078059;28;20135;-50
2023/01/12 00:03:47;;;;;;;21.52;3.53;;;8.20;99.90;;;;;;5078019;28;20479;-49
2023/01/12 00:06:13;;;;;;;20.30;3.90;;;8.30;99.90;;;;;;5082306;28;20040;-49
2023/01/12 00:08:39;;;;;;;22.77;3.83;;;8.20;99.90;;;;;;5075951;28;20376;-47
2023/01/12 00:11:04;;;;;;;25.83;3.97;;;8.10;99.90;;;;;;5073964;28;20047;-49
2023/01/12 00:13:31;;;;;;;26.10;3.95;;;8.20;99.90;;;;;;5077005;28;20037;-48
2023/01/12 00:18:46;;;;;;;24.52;3.47;;;8.30;99.90;;;;;;5073129;28;20472;-50
2023/01/12 00:21:12;;;;;;;16.40;3.20;;;8.30;99.90;;;;;;5086819;28;20036;-48
2023/01/12 00:23:38;;;;;;;21.52;3.55;;;8.10;99.90;;;;;;5084819;28;20396;-48
2023/01/12 00:26:07;;;;;;;21.23;3.78;;;8.20;99.90;;;;;;5074755;28;20036;-49
2023/01/12 00:28:33;;;;;;;18.58;3.28;;;8.10;99.90;;;;;;5073442;28;20036;-46
2023/01/12 00:31:06;;;;;;;20.42;3.38;;;8.30;99.90;;;;;;5083251;28;20040;-47
2023/01/12 00:33:34;;;;;;;24.45;3.47;;;8.10;99.90;;;;;;5080896;28;20033;-50
2023/01/12 00:36:10;;;;;;;16.27;3.03;;;8.30;99.90;;;;;;5082863;28;20047;-49
2023/01/12 00:38:37;;;;;;;25.25;3.65;;;8.30;99.90;;;;;;5090629;28;20097;-48
2023/01/12 00:41:10;;;;;;;24.67;3.90;;;8.20;99.90;;;;;;5076119;28;20052;-48
2023/01/12 00:46:31;;;;;;;23.08;3.40;;;8.90;99.90;;;;;;5081535;28;20307;-51
2023/01/12 00:48:57;;;;;;;15.23;3.03;;;8.30;99.90;;;;;;5086625;28;20028;-46
2023/01/12 00:51:23;;;;;;;20.75;3.03;;;8.20;99.90;;;;;;5071977;28;20031;-51
2023/01/12 00:53:48;;;;;;;20.20;3.25;;;8.20;99.90;;;;;;5055108;28;20048;-49
2023/01/12 00:56:14;;;;;;;24.60;3.78;;;8.30;99.90;;;;;;5072763;28;20033;-51
2023/01/12 00:58:40;;;;;;;21.83;3.72;;;8.20;99.90;;;;;;5078816;28;20565;-51
2023/01/12 01:01:07;;;;;;;23.92;3.83;;;8.30;99.90;;;;;;5082473;28;20457;-49
2023/01/12 01:03:34;;;;;;;25.60;4.28;;;8.10;99.90;;;;;;5077341;28;20476;-49
2023/01/12 01:06:04;;;;;;;22.60;4.03;;;8.30;99.90;;;;;;5082074;28;20391;-49
2023/01/12 01:08:30;;;;;;;21.38;4.32;;;8.10;99.90;;;;;;5081537;28;20074;-48
2023/01/12 01:11:11;;;;;;;25.02;3.42;;;8.10;99.90;;;;;;5072353;28;20440;-48
2023/01/12 01:13:42;;;;;;;27.85;4.20;;;8.20;99.90;;;;;;5086560;28;20043;-51
2023/01/12 01:16:10;;;;;;;18.85;3.78;;;8.10;99.90;;;;;;5071354;28;20044;-46
2023/01/12 01:18:36;;;;;;;19.13;3.72;;;8.30;99.90;;;;;;5072845;28;20294;-51
2023/01/12 01:21:03;;;;;;;19.88;3.90;;;8.20;99.90;;;;;;5083493;28;20102;-49
2023/01/12 01:23:32;;;;;;;15.43;4.00;;;8.10;99.90;;;;;;5076235;28;20475;-49
2023/01/12 01:26:06;;;;;;;19.60;4.07;;;8.20;99.90;;;;;;5076365;28;20036;-54
2023/01/12 01:28:32;;;;;;;22.73;4.13;;;8.30;99.90;;;;;;5075893;28;20127;-48
2023/01/12 01:31:06;;;;;;;23.83;3.45;;;8.30;99.90;;;;;;5077695;28;20036;-50
2023/01/12 01:33:32;;;;;;;20.10;3.78;;;8.10;99.90;;;;;;5082163;28;20079;-47
2023/01/12 01:35:59;;;;;;;20.85;3.97;;;8.30;99.90;;;;;;5074269;28;20071;-52
2023/01/12 01:38:25;;;;;;;22.58;3.63;;;8.40;99.90;;;;;;5076718;28;20040;-51
2023/01/12 01:40:52;;;;;;;22.67;4.70;;;8.20;99.90;;;;;;5073479;28;20562;-47
2023/01/12 01:43:19;;;;;;;20.25;4.75;;;8.20;99.90;;;;;;5072553;28;20094;-51
2023/01/12 01:46:06;;;;;;;39.72;6.38;;;8.30;99.90;;;;;;5080363;28;20054;-50
2023/01/12 01:48:35;;;;;;;26.42;4.60;;;8.20;99.90;;;;;;5071980;28;20043;-48
2023/01/12 01:51:06;;;;;;;32.13;4.68;;;8.20;99.90;;;;;;5080484;28;20037;-47
2023/01/12 01:53:36;;;;;;;20.25;4.38;;;8.40;99.90;;;;;;5082236;28;20398;-49
2023/01/12 01:56:10;;;;;;;27.73;4.95;;;8.20;99.90;;;;;;5072614;28;20092;-45
2023/01/12 01:59:03;;;;;;;25.75;4.22;;;8.40;99.90;;;;;;5080653;28;20048;-52
2023/01/12 02:01:30;;;;;;;22.85;3.78;;;8.30;99.90;;;;;;5073070;28;20063;-46
2023/01/12 02:03:56;;;;;;;27.45;4.72;;;8.40;99.90;;;;;;5071782;28;20037;-49
2023/01/12 02:06:25;;;;;;;31.40;4.93;;;8.30;99.90;;;;;;5071362;28;20039;-49
2023/01/12 02:08:58;;;;;;;30.55;5.07;;;8.40;99.90;;;;;;5070305;28;20044;-51
2023/01/12 02:17:17;;;;;;;24.80;4.43;;;8.30;99.90;;;;;;5066757;28;20044;-49
2023/01/12 02:20:20;;;;;;;23.58;4.38;;;8.30;99.90;;;;;;5074487;28;20129;-50
2023/01/12 02:23:21;;;;;;;28.40;4.82;;;8.60;99.90;;;;;;5072652;28;20400;-49
2023/01/12 02:26:05;;;;;;;25.70;4.32;;;8.40;99.90;;;;;;5078295;28;20056;-50
2023/01/12 02:29:05;;;;;;;30.88;4.43;;;8.40;99.90;;;;;;5071072;28;20039;-50
2023/01/12 02:31:41;;;;;;;27.52;4.72;;;8.60;99.90;;;;;;5077029;28;20101;-49
2023/01/12 02:34:23;;;;;;;22.33;4.88;;;8.40;99.90;;;;;;5084961;28;20047;-47
2023/01/12 02:37:03;;;;;;;22.77;5.22;;;8.50;99.90;;;;;;5071247;28;20119;-47
2023/01/12 02:39:33;;;;;;;25.45;5.15;;;8.80;99.90;;;;;;5077580;28;20039;-47
2023/01/12 02:45:21;;;;;;;28.05;4.97;;;8.70;99.90;;;;;;5076314;28;20479;-48
2023/01/12 02:48:31;;;;;;;20.52;3.97;;;8.50;99.90;;;;;;5068271;28;20036;-49
2023/01/12 02:51:09;;;;;;;21.55;4.38;;;8.80;99.90;;;;;;5062171;28;20048;-46
2023/01/12 02:53:51;;;;;;;24.50;4.55;;;8.70;99.90;;;;;;5070402;28;20126;-49
2023/01/12 02:56:42;;;;;;;27.52;5.70;;;8.80;99.90;;;;;;5074083;28;20114;-47
2023/01/12 02:59:19;;;;;;;25.42;4.93;;;8.80;99.90;;;;;;5070299;28;20127;-50
2023/01/12 03:01:47;;;;;;;18.48;4.70;;;8.80;99.90;;;;;;5084759;28;20032;-51
2023/01/12 03:04:16;;;;;;;21.80;4.50;;;8.40;99.90;;;;;;5091433;28;20131;-50
2023/01/12 03:06:47;;;;;;;29.30;4.85;;;8.80;99.90;;;;;;5080034;28;20040;-47
2023/01/12 03:09:17;;;;;;;26.70;4.55;;;8.70;99.90;;;;;;5088158;28;20063;-49
2023/01/12 03:11:47;;;;;;;18.67;4.05;;;8.50;99.90;;;;;;5081825;28;20391;-49
2023/01/12 03:14:14;;;;;;;17.35;4.28;;;8.60;99.90;;;;;;5070665;28;20480;-48
2023/01/12 03:16:40;;;;;;;13.90;3.22;;;8.40;99.90;;;;;;5069267;28;20056;-50
2023/01/12 03:19:29;;;;;;;12.98;3.38;;;8.80;99.90;;;;;;5077413;28;20036;-51
2023/01/12 03:21:59;;;;;;;14.40;3.22;;;8.90;99.90;;;;;;5073523;28;20170;-51
2023/01/12 03:24:29;;;;;;;10.32;3.25;;;8.40;99.90;;;;;;5081838;28;20127;-50
2023/01/12 03:27:02;;;;;;;16.02;3.42;;;8.60;99.90;;;;;;5080009;28;20032;-51
2023/01/12 03:29:30;;;;;;;10.85;3.17;;;8.50;99.90;;;;;;5075005;28;20052;-50
2023/01/12 03:31:56;;;;;;;14.35;4.05;;;8.90;99.90;;;;;;5080656;28;20059;-49
2023/01/12 03:34:22;;;;;;;14.70;4.03;;;8.90;99.90;;;;;;5073417;28;20040;-50
2023/01/12 03:37:02;;;;;;;13.90;4.10;;;8.50;99.90;;;;;;5077541;28;20075;-47
2023/01/12 03:39:59;;;;;;;15.15;3.33;;;8.90;99.90;;;;;;5073113;28;20194;-48
2023/01/12 03:42:34;;;;;;;12.80;3.33;;;8.90;99.90;;;;;;5070415;28;20057;-46
2023/01/12 03:45:08;;;;;;;14.55;2.80;;;8.90;99.90;;;;;;5074519;28;20044;-49
2023/01/12 03:47:35;;;;;;;12.27;3.08;;;8.70;99.90;;;;;;5081342;28;20097;-48
2023/01/12 03:50:21;;;;;;;11.32;2.90;;;8.70;99.90;;;;;;5078354;28;20105;-51
2023/01/12 03:52:48;;;;;;;11.73;3.15;;;8.60;99.90;;;;;;5076820;28;20043;-47
2023/01/12 03:55:18;;;;;;;13.85;3.60;;;8.70;99.90;;;;;;5051885;28;20044;-48
2023/01/12 03:57:45;;;;;;;14.15;3.25;;;8.70;99.90;;;;;;5069859;28;20036;-48
2023/01/12 04:00:13;;;;;;;13.23;3.30;;;8.70;99.90;;;;;;5080751;28;20079;-48
2023/01/12 04:02:42;;;;;;;15.70;3.00;;;8.90;99.90;;;;;;5077614;28;20044;-46
2023/01/12 04:05:09;;;;;;;11.50;2.88;;;8.80;99.90;;;;;;5083126;28;20089;-46
2023/01/12 04:07:34;;;;;;;10.23;2.90;;;8.60;99.90;;;;;;5089085;28;20060;-50
2023/01/12 04:10:00;;;;;;;12.60;2.83;;;8.60;99.90;;;;;;5085484;28;20087;-50
2023/01/12 04:12:26;;;;;;;10.20;2.35;;;8.90;99.90;;;;;;5075063;28;20032;-49
2023/01/12 04:14:51;;;;;;;8.70;2.22;;;8.70;99.90;;;;;;5071433;28;20052;-50
2023/01/12 04:17:18;;;;;;;10.80;2.67;;;8.60;99.90;;;;;;5081341;28;20044;-47
2023/01/12 04:19:43;;;;;;;10.18;2.42;;;9.00;99.90;;;;;;5081973;28;20039;-49
2023/01/12 04:24:58;;;;;;;8.82;2.95;;;8.70;99.90;;;;;;5086236;28;20044;-50
2023/01/12 04:27:24;;;;;;;9.85;2.60;;;8.40;99.90;;;;;;5075235;28;20036;-46
2023/01/12 04:29:50;;;;;;;9.93;2.85;;;8.60;99.90;;;;;;5075954;28;20479;-49
2023/01/12 04:32:15;;;;;;;10.25;2.17;;;8.80;99.90;;;;;;5069593;28;20039;-50
2023/01/12 04:34:41;;;;;;;9.02;2.58;;;8.50;99.90;;;;;;5068930;28;20048;-46
2023/01/12 04:37:07;;;;;;;10.45;2.72;;;8.50;99.90;;;;;;5069557;28;20131;-46
2023/01/12 04:39:32;;;;;;;7.93;2.60;;;8.40;99.90;;;;;;5069674;28;20494;-49
2023/01/12 04:41:58;;;;;;;8.52;2.28;;;8.70;99.90;;;;;;5071031;28;20060;-47
2023/01/12 04:44:24;;;;;;;13.88;2.40;;;8.50;99.90;;;;;;5073083;28;20369;-48
2023/01/12 04:46:50;;;;;;;7.80;2.28;;;8.40;99.90;;;;;;5075426;28;20036;-51
2023/01/12 04:49:16;;;;;;;6.82;1.95;;;8.30;99.90;;;;;;5084447;28;20032;-50
2023/01/12 04:51:42;;;;;;;8.75;2.30;;;8.30;99.90;;;;;;5076508;28;20468;-48
2023/01/12 04:54:09;;;;;;;7.90;1.90;;;8.60;99.90;;;;;;5084304;28;20102;-50
2023/01/12 04:56:35;;;;;;;5.38;1.95;;;8.50;99.90;;;;;;5071883;28;20395;-51
2023/01/12 04:59:01;;;;;;;5.68;1.90;;;8.60;99.90;;;;;;5072999;28;20036;-48
2023/01/12 05:01:28;;;;;;;6.65;1.60;;;8.60;99.90;;;;;;5079495;28;20558;-50
2023/01/12 05:04:01;;;;;;;5.95;1.73;;;8.20;99.90;;;;;;5080800;28;20043;-49
2023/01/12 05:06:27;;;;;;;4.97;1.50;;;8.40;99.90;;;;;;5080176;28;20040;-49
2023/01/12 05:11:37;;;;;;;6.22;1.80;;;8.60;99.90;;;;;;5079430;28;20043;-49
2023/01/12 05:14:03;;;;;;;6.80;1.88;;;8.20;99.90;;;;;;5074318;28;20044;-48
2023/01/12 05:16:29;;;;;;;6.53;2.22;;;8.20;99.90;;;;;;5073969;28;20040;-47
2023/01/12 05:18:54;;;;;;;6.55;1.40;;;8.20;99.90;;;;;;5082600;28;20040;-51
2023/01/12 05:21:21;;;;;;;6.90;1.50;;;8.40;99.90;;;;;;5078666;28;20394;-48
2023/01/12 05:23:48;;;;;;;6.18;1.60;;;8.60;99.90;;;;;;5079098;28;20072;-48
2023/01/12 05:26:14;;;;;;;5.85;1.77;;;8.60;99.90;;;;;;5077319;28;20036;-49
2023/01/12 05:28:40;;;;;;;8.48;2.40;;;8.60;99.90;;;;;;5072721;28;20044;-49
2023/01/12 05:31:11;;;;;;;8.82;1.98;;;8.70;99.90;;;;;;5071145;28;20464;-47
2023/01/12 05:33:40;;;;;;;6.30;1.90;;;8.60;99.90;;;;;;5077352;28;20037;-46
2023/01/12 05:36:08;;;;;;;7.28;1.55;;;8.60;99.90;;;;;;5082076;28;20036;-48
2023/01/12 05:38:34;;;;;;;8.30;1.70;;;8.70;99.90;;;;;;5072823;28;20094;-47
2023/01/12 05:41:02;;;;;;;5.32;1.73;;;8.60;99.90;;;;;;5077163;28;20052;-49
2023/01/12 05:46:13;;;;;;;9.43;1.80;;;8.40;99.90;;;;;;5075948;28;20044;-47
2023/01/12 05:48:39;;;;;;;3.28;1.50;;;8.90;99.90;;;;;;5072791;28;20391;-49
2023/01/12 05:51:06;;;;;;;8.77;2.28;;;8.60;99.90;;;;;;5084704;28;20035;-48
2023/01/12 05:53:32;;;;;;;8.05;2.17;;;8.50;99.90;;;;;;5070643;28;20040;-48
2023/01/12 05:55:58;;;;;;;5.97;2.03;;;8.50;99.90;;;;;;5076335;28;20085;-48
2023/01/12 05:58:24;;;;;;;10.25;2.33;;;8.90;99.90;;;;;;5077446;28;20040;-49
2023/01/12 06:00:50;;;;;;;8.05;2.15;;;8.90;99.90;;;;;;5071517;28;20048;-48
2023/01/12 06:03:16;;;;;;;6.63;2.22;;;8.80;99.90;;;;;;5071212;28;20147;-49
2023/01/12 06:05:42;;;;;;;7.82;2.58;;;8.60;99.90;;;;;;5072022;28;20383;-50
2023/01/12 06:08:07;;;;;;;7.78;2.80;;;8.40;99.90;;;;;;5080765;28;20238;-49
2023/01/12 06:10:35;;;;;;;5.47;2.30;;;8.40;99.90;;;;;;5071616;28;20021;-51
2023/01/12 06:15:46;;;;;;;7.25;2.40;;;8.60;99.90;;;;;;5070317;28;20044;-50
2023/01/12 06:18:11;;;;;;;7.97;2.20;;;8.50;99.90;;;;;;5081907;28;20375;-51
2023/01/12 06:20:37;;;;;;;9.68;2.38;;;8.60;99.90;;;;;;5074305;28;20476;-53
2023/01/12 06:23:06;;;;;;;10.18;2.20;;;8.70;99.90;;;;;;5082825;28;20392;-49
2023/01/12 06:25:32;;;;;;;4.63;2.13;;;9.10;99.90;;;;;;5073613;28;20040;-46
2023/01/12 06:27:57;;;;;;;8.60;2.60;;;9.10;99.90;;;;;;5080111;28;20079;-47
2023/01/12 06:30:23;;;;;;;4.70;2.13;;;8.90;99.90;;;;;;5082000;28;20040;-48
2023/01/12 06:32:49;;;;;;;6.38;2.42;;;9.20;99.90;;;;;;5078246;28;20442;-47
2023/01/12 06:35:15;;;;;;;4.68;1.90;;;8.60;99.90;;;;;;5076803;28;20036;-47
2023/01/12 06:37:41;;;;;;;5.78;2.20;;;9.20;99.90;;;;;;5082840;28;20355;-48
2023/01/12 06:40:07;;;;;;;5.05;2.28;;;9.20;99.90;;;;;;5073683;28;20036;-45
2023/01/12 06:42:33;;;;;;;5.13;2.00;;;8.60;99.90;;;;;;5076959;28;20512;-50
2023/01/12 06:45:02;;;;;;;6.03;2.28;;;9.00;99.90;;;;;;5074360;28;20044;-46
2023/01/12 06:47:30;;;;;;;6.18;2.08;;;8.90;99.90;;;;;;5070927;28;20407;-48
2023/01/12 06:49:56;;;;;;;4.38;2.28;;;8.90;99.90;;;;;;5075509;28;20064;-48
2023/01/12 06:52:24;;;;;;;7.80;2.80;;;8.60;99.90;;;;;;5071144;28;20032;-49
2023/01/12 06:54:51;;;;;;;4.57;2.55;;;8.60;99.90;;;;;;5082930;28;20130;-47
2023/01/12 06:57:16;;;;;;;5.18;2.28;;;8.60;99.90;;;;;;5077426;28;20043;-51
2023/01/12 06:59:42;;;;;;;6.00;2.42;;;8.70;99.90;;;;;;5075313;28;20036;-51
2023/01/12 07:02:13;;;;;;;6.28;2.33;;;8.70;99.90;;;;;;5081779;28;20471;-48
2023/01/12 07:04:40;;;;;;;5.07;2.40;;;9.20;99.90;;;;;;5075815;28;20037;-47
2023/01/12 07:07:07;;;;;;;5.97;2.58;;;9.00;99.90;;;;;;5080931;28;20036;-48
2023/01/12 07:09:34;;;;;;;7.22;2.72;;;8.90;99.90;;;;;;5072121;28;20112;-49
2023/01/12 07:12:00;;;;;;;4.50;2.50;;;8.90;99.90;;;;;;5079626;28;20552;-47
2023/01/12 07:14:26;;;;;;;4.72;2.38;;;8.90;99.90;;;;;;5071513;28;20045;-47
2023/01/12 07:16:51;;;;;;;6.60;2.75;;;8.90;99.90;;;;;;5071436;28;20047;-46
2023/01/12 07:19:17;;;;;;;5.78;2.90;;;8.80;99.90;;;;;;5080700;28;20456;-46
2023/01/12 07:21:43;;;;;;;5.68;2.60;;;9.10;99.90;;;;;;5070494;28;20040;-50
2023/01/12 07:24:09;;;;;;;4.57;2.65;;;9.10;99.90;;;;;;5078043;28;20129;-49
2023/01/12 07:26:36;;;;;;;5.53;2.72;;;8.80;99.90;;;;;;5078556;28;20044;-49
2023/01/12 07:29:01;;;;;;;6.78;3.05;;;9.00;99.90;;;;;;5081075;28;20029;-49
2023/01/12 07:31:27;;;;;;;5.22;3.10;;;9.40;99.90;;;;;;5082991;28;20112;-46
2023/01/12 07:33:54;;;;;;;5.40;3.17;;;9.10;99.90;;;;;;5069236;28;20036;-51
2023/01/12 07:36:21;;;;;;;5.13;3.17;;;8.80;99.90;;;;;;5069034;28;20353;-46
2023/01/12 07:38:47;;;;;;;5.35;3.28;;;9.50;99.90;;;;;;5069988;28;20045;-47
2023/01/12 07:43:58;;;;;;;6.60;3.80;;;9.60;99.90;;;;;;5070633;28;20080;-48
2023/01/12 07:46:24;;;;;;;8.30;3.97;;;9.20;99.90;;;;;;5073303;28;20068;-48
2023/01/12 07:48:49;;;;;;;9.93;4.32;;;8.90;99.90;;;;;;5080160;28;20040;-48
2023/01/12 07:51:15;;;;;;;10.02;4.00;;;9.10;99.90;;;;;;5073826;28;20086;-48
2023/01/12 07:53:41;;;;;;;12.13;5.10;;;9.10;99.90;;;;;;5071448;28;20036;-51
2023/01/12 07:56:08;;;;;;;11.65;4.68;;;9.10;99.90;;;;;;5074290;28;20040;-50
2023/01/12 07:58:34;;;;;;;12.75;4.97;;;9.40;99.90;;;;;;5075157;28;20039;-48
2023/01/12 08:01:00;;;;;;;12.20;5.15;;;9.30;99.90;;;;;;5077183;28;20079;-48
2023/01/12 08:03:26;;;;;;;13.07;5.43;;;9.20;99.90;;;;;;5069795;28;20045;-48
2023/01/12 08:05:54;;;;;;;22.27;6.13;;;9.80;99.90;;;;;;5068421;28;20032;-50
2023/01/12 08:08:20;;;;;;;16.42;6.00;;;9.80;99.90;;;;;;5069947;28;20075;-48
2023/01/12 08:10:47;;;;;;;20.00;5.65;;;9.40;99.90;;;;;;5071565;28;20094;-49
2023/01/12 08:13:13;;;;;;;24.42;5.72;;;9.80;99.90;;;;;;5054594;28;20123;-46
2023/01/12 08:15:43;;;;;;;22.65;5.03;;;9.40;99.90;;;;;;5072507;28;20029;-46
2023/01/12 08:18:21;;;;;;;25.02;4.75;;;9.60;99.90;;;;;;5069995;28;20063;-48
2023/01/12 08:20:47;;;;;;;26.92;4.35;;;9.90;99.90;;;;;;5074154;28;20036;-49
2023/01/12 08:23:36;;;;;;;31.48;5.07;;;9.70;99.90;;;;;;5072916;28;20453;-52
2023/01/12 08:26:05;;;;;;;30.45;5.28;;;10.30;99.90;;;;;;5073953;28;20068;-52
2023/01/12 08:28:39;;;;;;;35.83;4.93;;;9.80;99.90;;;;;;5075309;28;20387;-49
2023/01/12 08:31:08;;;;;;;34.88;4.70;;;10.00;99.90;;;;;;5076204;28;20041;-47
2023/01/12 08:33:36;;;;;;;40.55;5.53;;;10.30;99.90;;;;;;5058262;28;20052;-47
2023/01/12 08:36:03;;;;;;;33.55;5.50;;;10.60;99.90;;;;;;5061288;28;20045;-47
2023/01/12 08:38:30;;;;;;;43.88;5.57;;;10.40;99.90;;;;;;5060924;28;20447;-44
2023/01/12 08:46:24;;;;;;;31.60;4.35;;;10.20;99.90;;;;;;5061251;28;20052;-49
2023/01/12 08:48:49;;;;;;;29.90;4.43;;;10.30;99.90;;;;;;5060791;28;20032;-45
2023/01/12 08:51:15;;;;;;;34.15;5.15;;;10.50;99.90;;;;;;5061330;28;20040;-46
2023/01/12 08:53:41;;;;;;;24.50;4.53;;;10.30;99.90;;;;;;5063221;28;20039;-46
2023/01/12 08:56:06;;;;;;;30.13;4.57;;;10.40;99.90;;;;;;5060287;28;20454;-46
2023/01/12 08:58:32;;;;;;;26.35;4.32;;;10.40;99.90;;;;;;5060794;28;20063;-46
2023/01/12 09:01:12;;;;;;;30.70;5.28;;;10.80;99.90;;;;;;5059569;28;20459;-48
2023/01/12 09:03:39;;;;;;;27.25;4.15;;;10.60;99.90;;;;;;5055882;28;20037;-45
2023/01/12 09:06:26;;;;;;;22.60;3.70;;;11.00;99.90;;;;;;5062729;28;20037;-47
2023/01/12 09:08:53;;;;;;;31.98;4.35;;;10.80;99.90;;;;;;5062524;28;20567;-45
2023/01/12 09:11:19;;;;;;;25.70;4.15;;;10.60;99.90;;;;;;5061300;28;20459;-45
2023/01/12 09:13:45;;;;;;;28.77;4.45;;;10.60;99.90;;;;;;5061205;28;20238;-44
2023/01/12 09:16:13;;;;;;;28.08;4.15;;;11.00;99.90;;;;;;5058705;28;20040;-45
2023/01/12 09:18:39;;;;;;;30.10;4.90;;;10.70;99.90;;;;;;5061295;28;20483;-47
2023/01/12 09:21:08;;;;;;;23.52;3.92;;;10.70;99.90;;;;;;5062676;28;20430;-45
2023/01/12 09:23:35;;;;;;;26.15;4.00;;;10.90;99.90;;;;;;5061567;28;20039;-46
2023/01/12 09:26:03;;;;;;;20.30;4.03;;;11.00;99.90;;;;;;5059338;28;20032;-46
2023/01/12 09:28:28;;;;;;;27.27;4.07;;;10.90;99.90;;;;;;5059453;28;20051;-45
2023/01/12 09:30:54;;;;;;;22.73;3.53;;;11.20;99.90;;;;;;5062046;28;20028;-44
2023/01/12 09:33:20;;;;;;;27.25;4.13;;;10.90;99.90;;;;;;5060480;28;20028;-45
2023/01/12 09:35:46;;;;;;;21.05;3.33;;;11.00;99.90;;;;;;5059176;28;20075;-45
2023/01/12 09:38:12;;;;;;;24.13;4.13;;;11.00;99.90;;;;;;5057312;28;20056;-47
2023/01/12 09:40:42;;;;;;;21.13;4.18;;;11.20;99.90;;;;;;5060566;28;20387;-46
2023/01/12 09:48:40;;;;;;;26.80;4.40;;;11.20;99.90;;;;;;5059360;28;20448;-44
2023/01/12 09:51:20;;;;;;;21.58;3.75;;;11.10;99.90;;;;;;5058970;28;20048;-46
2023/01/12 09:53:45;;;;;;;24.60;4.13;;;11.20;99.90;;;;;;5061476;28;20106;-45
2023/01/12 09:56:37;;;;;;;24.00;3.97;;;11.00;99.90;;;;;;5058568;28;20040;-46
2023/01/12 09:59:06;;;;;;;26.42;3.67;;;11.10;99.90;;;;;;5054759;28;20404;-48
2023/01/12 10:01:35;;;;;;;23.77;4.07;;;10.80;99.90;;;;;;5058653;28;20169;-46
2023/01/12 10:04:02;;;;;;;29.40;4.28;;;10.80;99.90;;;;;;5060114;28;20052;-46
2023/01/12 10:06:28;;;;;;;24.75;3.85;;;11.00;99.90;;;;;;5062194;28;20037;-46
2023/01/12 10:08:59;;;;;;;24.88;3.97;;;10.70;99.90;;;;;;5059997;28;20068;-47
2023/01/12 10:11:53;;;;;;;28.20;4.38;;;10.70;99.90;;;;;;5059344;28;20029;-45
2023/01/12 10:14:31;;;;;;;27.50;4.03;;;10.90;99.90;;;;;;5061131;28;20119;-45
2023/01/12 10:17:15;;;;;;;20.92;3.50;;;10.90;99.90;;;;;;5062071;28;20032;-47
2023/01/12 10:19:47;;;;;;;28.63;4.22;;;10.70;99.90;;;;;;5060231;28;20040;-45
2023/01/12 10:22:36;;;;;;;24.23;4.20;;;10.50;99.90;;;;;;5059243;28;20077;-45
2023/01/12 10:25:33;;;;;;;24.10;4.32;;;10.80;99.90;;;;;;5061170;28;20045;-47
2023/01/12 10:28:39;;;;;;;24.02;3.92;;;10.40;99.90;;;;;;5007924;28;20369;-46
2023/01/12 10:31:05;;;;;;;25.50;4.03;;;10.50;99.90;;;;;;4981818;28;20077;-46
2023/01/12 10:33:33;;;;;;;22.08;3.80;;;10.80;99.90;;;;;;5044279;28;20072;-46
2023/01/12 10:36:04;;;;;;;25.75;4.80;;;10.50;99.90;;;;;;5069012;28;20036;-45
2023/01/12 10:38:37;;;;;;;33.97;4.70;;;10.80;99.90;;;;;;5081598;28;20039;-45
2023/01/12 10:41:15;;;;;;;27.10;3.95;;;10.80;99.90;;;;;;5071276;28;20048;-45
2023/01/12 10:43:42;;;;;;;23.58;4.07;;;10.70;99.90;;;;;;5091079;28;20097;-47
2023/01/12 10:46:16;;;;;;;26.70;4.28;;;10.70;99.90;;;;;;5073710;28;20083;-46
2023/01/12 10:48:47;;;;;;;27.50;4.28;;;10.50;99.90;;;;;;5059558;28;20024;-45
2023/01/12 10:51:26;;;;;;;27.55;4.28;;;10.90;99.90;;;;;;5059966;28;20460;-46
2023/01/12 10:54:00;;;;;;;20.40;3.22;;;10.70;99.90;;;;;;5061034;28;20031;-46
2023/01/12 10:56:50;;;;;;;30.30;3.83;;;10.70;99.90;;;;;;5058563;28;20064;-47
2023/01/12 10:59:20;;;;;;;23.35;3.58;;;10.80;99.90;;;;;;5030365;28;20055;-50
2023/01/12 11:01:49;;;;;;;21.52;3.72;;;10.70;99.90;;;;;;5058951;28;20460;-48
2023/01/12 11:04:21;;;;;;;25.05;3.88;;;10.80;99.90;;;;;;5066059;28;20101;-50
2023/01/12 11:07:01;;;;;;;24.70;4.13;;;10.80;99.90;;;;;;5054963;28;20052;-46
2023/01/12 11:09:30;;;;;;;20.00;3.53;;;11.20;99.90;;;;;;5057598;28;20056;-47
2023/01/12 11:12:01;;;;;;;25.23;3.72;;;11.00;99.90;;;;;;5059787;28;20119;-47
2023/01/12 11:14:32;;;;;;;22.50;3.78;;;11.00;99.90;;;;;;5058761;28;20036;-50
2023/01/12 11:17:15;;;;;;;21.67;3.88;;;11.30;99.90;;;;;;5057771;28;20044;-45
2023/01/12 11:19:43;;;;;;;24.48;3.72;;;11.20;99.90;;;;;;5059419;28;20033;-47
2023/01/12 11:22:23;;;;;;;27.80;4.18;;;11.40;99.90;;;;;;5059434;28;20036;-46
2023/01/12 11:24:54;;;;;;;21.77;3.85;;;11.40;99.90;;;;;;5060493;28;20480;-45
2023/01/12 11:27:30;;;;;;;28.05;4.93;;;11.40;99.90;;;;;;5059024;28;20028;-45
2023/01/12 11:30:02;;;;;;;20.63;3.92;;;11.20;99.90;;;;;;5059698;28;20685;-47
2023/01/12 11:32:50;;;;;;;27.55;4.82;;;11.30;99.90;;;;;;5059086;28;20029;-47
2023/01/12 11:35:40;;;;;;;24.98;4.47;;;11.10;99.90;;;;;;5060875;28;20400;-48
2023/01/12 11:38:15;;;;;;;26.30;4.38;;;11.30;99.90;;;;;;5059675;28;20028;-47
2023/01/12 11:40:42;;;;;;;24.13;4.00;;;11.30;99.90;;;;;;5058120;28;20032;-47
2023/01/12 11:46:13;;;;;;;30.23;4.85;;;11.20;99.90;;;;;;5057137;28;20041;-47
2023/01/12 11:48:50;;;;;;;26.77;4.72;;;11.20;99.90;;;;;;5056091;28;20508;-48
2023/01/12 11:51:16;;;;;;;29.00;4.90;;;11.10;99.90;;;;;;5054294;28;20036;-50
2023/01/12 11:53:43;;;;;;;25.13;4.25;;;11.30;99.90;;;;;;5054052;28;20494;-49
2023/01/12 11:56:34;;;;;;;30.10;4.57;;;11.70;99.90;;;;;;5059248;28;20109;-48
2023/01/12 11:59:18;;;;;;;28.65;4.47;;;11.20;99.90;;;;;;5056934;28;20059;-47
2023/01/12 12:02:13;;;;;;;30.85;5.30;;;11.10;99.90;;;;;;5057373;28;20075;-51
2023/01/12 12:04:48;;;;;;;32.40;4.43;;;11.10;99.90;;;;;;5056018;28;20123;-46
2023/01/12 12:07:36;;;;;;;26.10;4.63;;;11.30;99.90;;;;;;5054724;28;20044;-49
2023/01/12 12:10:17;;;;;;;22.63;4.68;;;11.30;99.90;;;;;;5056746;28;20025;-47
2023/01/12 12:13:06;;;;;;;31.27;4.85;;;11.40;99.90;;;;;;5055469;28;20391;-46
2023/01/12 12:15:56;;;;;;;25.88;4.22;;;11.40;99.90;;;;;;5055595;28;20029;-49
2023/01/12 12:18:25;;;;;;;27.20;4.93;;;11.50;99.90;;;;;;5057237;28;20067;-49
2023/01/12 12:21:29;;;;;;;22.38;3.78;;;11.60;99.90;;;;;;5057424;28;20041;-50
2023/01/12 12:24:45;;;;;;;22.63;3.83;;;11.60;99.90;;;;;;5058577;28;20127;-48
2023/01/12 12:27:49;;;;;;;24.75;4.05;;;11.50;99.90;;;;;;5056421;28;20036;-47
2023/01/12 12:30:49;;;;;;;22.88;4.47;;;11.50;99.90;;;;;;5058084;28;20031;-48
2023/01/12 12:33:39;;;;;;;19.92;3.67;;;11.40;99.90;;;;;;5054330;28;20047;-46
2023/01/12 12:36:18;;;;;;;21.02;4.00;;;11.60;99.90;;;;;;5055476;28;20036;-46
2023/01/12 12:39:05;;;;;;;23.60;4.43;;;11.40;99.90;;;;;;5058198;28;20071;-49
2023/01/12 12:47:53;;;;;;;21.25;3.80;;;11.50;99.90;;;;;;5060137;28;20040;-48
2023/01/12 12:50:40;;;;;;;24.63;3.72;;;11.50;99.90;;;;;;5056040;28;20029;-48
2023/01/12 12:53:28;;;;;;;23.50;4.13;;;11.70;99.90;;;;;;5056059;28;20036;-46
2023/01/12 12:55:58;;;;;;;25.17;4.10;;;11.90;99.90;;;;;;5058482;28;20057;-50
2023/01/12 12:58:37;;;;;;;19.75;3.70;;;11.70;99.90;;;;;;5056316;28;20434;-45
2023/01/12 13:01:28;;;;;;;18.63;3.35;;;11.60;99.90;;;;;;5056202;28;20451;-47
2023/01/12 13:03:55;;;;;;;17.10;2.90;;;11.60;99.90;;;;;;5053733;28;20110;-45
2023/01/12 13:06:42;;;;;;;24.10;3.55;;;11.60;99.90;;;;;;5061137;28;20101;-46
2023/01/12 13:09:09;;;;;;;25.33;3.72;;;11.40;99.90;;;;;;5060356;28;20040;-46
2023/01/12 13:11:52;;;;;;;18.55;3.85;;;11.60;99.90;;;;;;5058810;28;20037;-46
2023/01/12 13:14:36;;;;;;;26.48;3.88;;;11.40;99.90;;;;;;5060829;28;20028;-46
2023/01/12 13:17:20;;;;;;;26.40;3.88;;;11.20;99.90;;;;;;5059628;28;20172;-47
2023/01/12 13:19:47;;;;;;;23.13;4.15;;;11.10;99.90;;;;;;5059905;28;20071;-46
2023/01/12 13:22:41;;;;;;;25.90;3.55;;;11.30;99.90;;;;;;5058897;28;20039;-47
2023/01/12 13:25:15;;;;;;;29.20;4.40;;;11.20;99.90;;;;;;5059747;28;20040;-46
2023/01/12 13:27:55;;;;;;;;;;;10.90;99.90;;;;;;5058907;28;20480;-46
2023/01/12 13:30:26;;;;;;;22.63;3.80;;;11.00;99.90;;;;;;5058953;28;19916;-46
2023/01/12 13:32:52;;;;;;;17.98;3.38;;;11.10;99.90;;;;;;5059916;28;20041;-48
2023/01/12 13:35:27;;;;;;;16.40;3.30;;;11.20;99.90;;;;;;5059752;28;20041;-47
2023/01/12 13:38:01;;;;;;;18.15;3.58;;;11.20;99.90;;;;;;5060604;28;20045;-46
2023/01/12 13:40:30;;;;;;;14.85;3.97;;;11.30;99.90;;;;;;5060800;28;20052;-46
2023/01/12 13:43:15;;;;;;;15.75;3.65;;;11.20;99.90;;;;;;5058849;28;20052;-45
2023/01/12 13:45:58;;;;;;;13.20;3.17;;;11.20;99.90;;;;;;5058657;28;20112;-48
2023/01/12 13:48:26;;;;;;;15.55;3.80;;;10.90;99.90;;;;;;5061282;28;20032;-48
2023/01/12 13:50:58;;;;;;;14.73;4.00;;;11.30;99.90;;;;;;5059552;28;20029;-47
2023/01/12 13:53:29;;;;;;;13.32;3.17;;;11.00;99.90;;;;;;5056775;28;20041;-47
2023/01/12 13:55:58;;;;;;;15.43;3.20;;;10.90;99.90;;;;;;5057367;28;20173;-46
2023/01/12 13:58:24;;;;;;;13.43;2.72;;;10.90;99.90;;;;;;5053659;28;20048;-47